createdAt,value
2022-09-28T00:01:57.254Z,98211.16
2022-09-28T00:04:25.916Z,98217.19
2022-09-28T00:06:55.967Z,98209.84
2022-09-28T00:09:24.758Z,98220.34
2022-09-28T00:11:53.955Z,98223.84
2022-09-28T00:14:23.166Z,98231.53
2022-09-28T00:16:51.895Z,98237.53
2022-09-28T00:19:20.619Z,98224.75
2022-09-28T00:21:49.329Z,98222.25
2022-09-28T00:24:24.073Z,98216.31
2022-09-28T00:26:58.158Z,98217.31
2022-09-28T00:29:28.877Z,98220.53
2022-09-28T00:32:00.725Z,98210.69
2022-09-28T00:34:32.276Z,98222.75
2022-09-28T00:37:01.939Z,98221.13
2022-09-28T00:39:32.804Z,98230.47
2022-09-28T00:42:01.554Z,98225.25
2022-09-28T00:44:41.478Z,98223.47
2022-09-28T00:47:26.665Z,98217.50
2022-09-28T00:50:00.341Z,98217.63
2022-09-28T00:52:33.509Z,98215.22
2022-09-28T00:55:08.278Z,98216.94
2022-09-28T00:57:39.507Z,98215.28
2022-09-28T01:00:10.085Z,98222.84
2022-09-28T01:02:38.878Z,98218.56
2022-09-28T01:05:11.078Z,98217.81
2022-09-28T01:07:40.362Z,98230.53
2022-09-28T01:10:11.207Z,98227.22
2022-09-28T01:12:40.069Z,98234.88
2022-09-28T01:15:09.738Z,98246.63
2022-09-28T01:17:51.064Z,98238.19
2022-09-28T01:20:52.695Z,98231.34
2022-09-28T01:23:51.307Z,98226.28
2022-09-28T01:26:52.608Z,98226.38
2022-09-28T01:29:33.709Z,98234.09
2022-09-28T01:32:12.118Z,98228.31
2022-09-28T01:34:46.737Z,98226.69
2022-09-28T01:37:21.500Z,98226.63
2022-09-28T01:39:53.358Z,98231.03
2022-09-28T01:42:26.036Z,98242.97
2022-09-28T01:45:03.060Z,98232.00
2022-09-28T01:47:38.520Z,98228.72
2022-09-28T01:50:13.661Z,98227.13
2022-09-28T01:52:50.928Z,98233.13
2022-09-28T01:55:29.550Z,98233.97
2022-09-28T01:58:03.500Z,98235.69
2022-09-28T02:00:38.580Z,98227.22
2022-09-28T02:03:11.112Z,98222.94
2022-09-28T02:05:54.409Z,98221.28
2022-09-28T02:08:28.629Z,98219.50
2022-09-28T02:11:04.449Z,98234.00
2022-09-28T02:13:36.841Z,98232.34
2022-09-28T02:16:15.331Z,98234.91
2022-09-28T02:18:45.389Z,98230.75
2022-09-28T02:21:24.190Z,98247.66
2022-09-28T02:23:59.607Z,98251.00
2022-09-28T02:26:33.418Z,98249.38
2022-09-28T02:29:02.896Z,98254.50
2022-09-28T02:31:33.246Z,98251.22
2022-09-28T02:34:02.477Z,98259.69
2022-09-28T02:36:31.532Z,98263.06
2022-09-28T02:39:01.661Z,98269.88
2022-09-28T02:41:49.776Z,98251.22
2022-09-28T02:44:48.503Z,98263.09
2022-09-28T02:47:28.438Z,98260.53
2022-09-28T02:50:09.812Z,98269.78
2022-09-28T02:53:01.497Z,98271.50
2022-09-28T02:55:50.528Z,98282.44
2022-09-28T02:58:33.351Z,98279.94
2022-09-28T03:01:12.116Z,98280.75
2022-09-28T03:03:49.977Z,98275.69
2022-09-28T03:06:25.239Z,98271.50
2022-09-28T03:09:01.868Z,98280.78
2022-09-28T03:11:39.516Z,98275.75
2022-09-28T03:14:11.371Z,98276.59
2022-09-28T03:16:51.168Z,98269.91
2022-09-28T03:19:30.167Z,98269.13
2022-09-28T03:21:59.611Z,98281.81
2022-09-28T03:24:28.189Z,98281.84
2022-09-28T03:26:56.806Z,98281.88
2022-09-28T03:29:25.590Z,98277.66
2022-09-28T03:32:00.299Z,98283.66
2022-09-28T03:34:31.063Z,98276.13
2022-09-28T03:36:59.781Z,98285.38
2022-09-28T03:39:28.710Z,98276.94
2022-09-28T03:41:57.478Z,98280.28
2022-09-28T03:44:26.197Z,98271.88
2022-09-28T03:46:54.899Z,98275.16
2022-09-28T03:49:23.658Z,98276.88
2022-09-28T03:51:53.819Z,98279.44
2022-09-28T03:54:22.533Z,98273.47
2022-09-28T03:56:52.341Z,98265.00
2022-09-28T03:59:21.181Z,98265.91
2022-09-28T04:01:50.674Z,98262.50
2022-09-28T04:04:19.778Z,98265.81
2022-09-28T04:06:48.411Z,98272.56
2022-09-28T04:09:19.000Z,98273.41
2022-09-28T04:12:03.382Z,98263.25
2022-09-28T04:14:35.041Z,98272.50
2022-09-28T04:17:05.793Z,98260.69
2022-09-28T04:19:34.611Z,98259.75
2022-09-28T04:22:15.337Z,98251.22
2022-09-28T04:24:46.669Z,98246.09
2022-09-28T04:27:25.287Z,98241.84
2022-09-28T04:29:53.969Z,98236.81
2022-09-28T04:32:22.578Z,98251.25
2022-09-28T04:34:52.881Z,98252.09
2022-09-28T04:37:21.762Z,98263.13
2022-09-28T04:39:53.628Z,98271.59
2022-09-28T04:42:22.410Z,98275.81
2022-09-28T04:44:52.504Z,98277.47
2022-09-28T04:47:21.245Z,98270.69
2022-09-28T04:49:59.717Z,98274.88
2022-09-28T04:52:33.751Z,98274.78
2022-09-28T04:55:03.852Z,98270.53
2022-09-28T04:57:35.488Z,98265.44
2022-09-28T05:00:05.570Z,98264.53
2022-09-28T05:02:36.488Z,98269.56
2022-09-28T05:05:16.450Z,98265.28
2022-09-28T05:07:59.768Z,98260.97
2022-09-28T05:10:29.966Z,98258.41
2022-09-28T05:12:58.739Z,98274.44
2022-09-28T05:15:28.657Z,98265.97
2022-09-28T05:17:57.520Z,98264.22
2022-09-28T05:20:36.051Z,98245.59
2022-09-28T05:23:04.759Z,98266.53
2022-09-28T05:25:36.922Z,98254.63
2022-09-28T05:28:25.476Z,98255.41
2022-09-28T05:31:07.060Z,98257.03
2022-09-28T05:33:45.784Z,98254.41
2022-09-28T05:36:15.517Z,98261.09
2022-09-28T05:38:45.217Z,98266.91
2022-09-28T05:41:15.640Z,98266.78
2022-09-28T05:43:45.850Z,98259.91
2022-09-28T05:46:14.822Z,98246.44
2022-09-28T05:48:43.817Z,98242.94
2022-09-28T05:51:12.484Z,98241.22
2022-09-28T05:53:41.178Z,98245.41
2022-09-28T05:56:10.876Z,98241.16
2022-09-28T05:58:45.658Z,98246.13
2022-09-28T06:01:15.218Z,98235.78
2022-09-28T06:03:44.077Z,98238.16
2022-09-28T06:06:13.096Z,98238.91
2022-09-28T06:08:46.499Z,98235.44
2022-09-28T06:11:27.210Z,98234.50
2022-09-28T06:13:59.569Z,98233.53
2022-09-28T06:16:31.600Z,98228.31
2022-09-28T06:19:00.424Z,98223.91
2022-09-28T06:21:38.516Z,98214.28
2022-09-28T06:24:08.605Z,98214.25
2022-09-28T06:26:38.621Z,98211.50
2022-09-28T06:29:09.709Z,98212.16
2022-09-28T06:31:38.357Z,98209.44
2022-09-28T06:34:06.985Z,98208.34
2022-09-28T06:36:35.647Z,98207.31
2022-09-28T06:39:04.492Z,98210.50
2022-09-28T06:41:33.452Z,98203.56
2022-09-28T06:44:14.610Z,98194.09
2022-09-28T06:46:56.105Z,98200.69
2022-09-28T06:49:38.481Z,98193.47
2022-09-28T06:52:17.990Z,98190.72
2022-09-28T06:55:12.859Z,98198.25
2022-09-28T06:57:46.226Z,98195.53
2022-09-28T07:00:17.159Z,98185.94
2022-09-28T07:02:48.197Z,98183.88
2022-09-28T07:05:29.291Z,98180.88
2022-09-28T07:08:20.690Z,98178.00
2022-09-28T07:11:08.369Z,98184.47
2022-09-28T07:13:50.949Z,98184.38
2022-09-28T07:16:28.690Z,98199.47
2022-09-28T07:19:00.922Z,98204.22
2022-09-28T07:21:30.664Z,98204.84
2022-09-28T07:24:04.357Z,98196.91
2022-09-28T07:26:46.049Z,98199.00
2022-09-28T07:29:24.521Z,98201.69
2022-09-28T07:32:04.723Z,98215.84
2022-09-28T07:34:40.149Z,98211.47
2022-09-28T07:37:19.172Z,98207.75
2022-09-28T07:39:59.143Z,98212.38
2022-09-28T07:42:30.341Z,98218.84
2022-09-28T07:44:59.614Z,98220.09
2022-09-28T07:47:34.658Z,98225.88
2022-09-28T07:50:29.711Z,98217.69
2022-09-28T07:53:21.733Z,98215.59
2022-09-28T07:56:07.553Z,98205.19
2022-09-28T07:58:44.436Z,98203.09
2022-09-28T08:01:24.213Z,98214.09
2022-09-28T08:03:56.614Z,98216.16
2022-09-28T08:06:25.655Z,98207.28
2022-09-28T08:08:57.122Z,98208.84
2022-09-28T08:11:37.046Z,98201.28
2022-09-28T08:14:18.019Z,98199.13
2022-09-28T08:16:57.676Z,98201.56
2022-09-28T08:19:48.329Z,98201.19
2022-09-28T08:22:18.983Z,98190.22
2022-09-28T08:24:49.263Z,98196.34
2022-09-28T08:27:18.532Z,98197.56
2022-09-28T08:29:47.215Z,98180.38
2022-09-28T08:32:25.892Z,98185.72
2022-09-28T08:35:06.964Z,98184.22
2022-09-28T08:37:55.636Z,98176.69
2022-09-28T08:40:59.729Z,98165.47
2022-09-28T08:44:02.276Z,98172.00
2022-09-28T08:46:46.022Z,98168.56
2022-09-28T08:49:36.793Z,98164.28
2022-09-28T08:52:25.233Z,98164.84
2022-09-28T08:55:08.897Z,98157.78
2022-09-28T08:57:48.336Z,98163.28
2022-09-28T09:00:24.370Z,98178.25
2022-09-28T09:02:53.358Z,98169.91
2022-09-28T09:05:39.083Z,98167.13
2022-09-28T09:08:27.701Z,98159.94
2022-09-28T09:11:03.642Z,98164.69
2022-09-28T09:14:07.842Z,98162.75
2022-09-28T09:16:49.858Z,98161.41
2022-09-28T09:19:36.809Z,98160.88
2022-09-28T09:22:25.229Z,98164.63
2022-09-28T09:25:04.748Z,98164.50
2022-09-28T09:27:48.059Z,98151.56
2022-09-28T09:30:20.530Z,98152.59
2022-09-28T09:33:16.072Z,98144.53
2022-09-28T09:36:21.389Z,98139.09
2022-09-28T09:39:12.033Z,98130.31
2022-09-28T09:42:07.140Z,98125.38
2022-09-28T09:45:05.281Z,98114.22
2022-09-28T09:48:03.120Z,98128.31
2022-09-28T09:50:39.601Z,98122.88
2022-09-28T09:53:18.030Z,98115.44
2022-09-28T09:55:50.852Z,98108.75
2022-09-28T09:58:35.529Z,98106.53
2022-09-28T10:01:20.500Z,98107.84
2022-09-28T10:04:01.424Z,98120.13
2022-09-28T10:06:36.022Z,98119.63
2022-09-28T10:09:10.220Z,98105.81
2022-09-28T10:11:44.811Z,98110.75
2022-09-28T10:14:20.262Z,98115.59
2022-09-28T10:17:04.970Z,98114.38
2022-09-28T10:19:45.503Z,98119.94
2022-09-28T10:22:28.760Z,98118.28
2022-09-28T10:25:01.313Z,98106.03
2022-09-28T10:27:32.736Z,98113.13
2022-09-28T10:30:14.938Z,98099.41
2022-09-28T10:32:45.322Z,98097.41
2022-09-28T10:35:23.584Z,98093.16
2022-09-28T10:38:03.486Z,98082.44
2022-09-28T10:40:57.109Z,98084.94
2022-09-28T10:43:38.682Z,98075.66
2022-09-28T10:46:16.940Z,98072.22
2022-09-28T10:48:54.061Z,98060.75
2022-09-28T10:51:41.766Z,98052.34
2022-09-28T10:54:18.550Z,98063.31
2022-09-28T10:56:50.932Z,98058.00
2022-09-28T10:59:40.684Z,98062.47
2022-09-28T11:02:27.319Z,98064.75
2022-09-28T11:05:04.483Z,98051.94
2022-09-28T11:07:46.830Z,98043.16
2022-09-28T11:10:23.298Z,98040.31
2022-09-28T11:12:55.255Z,98035.31
2022-09-28T11:15:29.861Z,98032.28
2022-09-28T11:18:20.146Z,98024.56
2022-09-28T11:20:49.907Z,98024.81
2022-09-28T11:23:23.616Z,98008.84
2022-09-28T11:26:03.274Z,98019.16
2022-09-28T11:28:35.233Z,98019.81
2022-09-28T11:31:10.499Z,98016.31
2022-09-28T11:33:51.845Z,98018.31
2022-09-28T11:37:07.015Z,98011.47
2022-09-28T11:39:47.566Z,98008.22
2022-09-28T11:42:31.057Z,98015.63
2022-09-28T11:45:12.758Z,98000.72
2022-09-28T11:47:54.337Z,97998.38
2022-09-28T11:50:32.546Z,97999.28
2022-09-28T11:53:12.275Z,98003.97
2022-09-28T11:55:48.181Z,98005.34
2022-09-28T11:58:27.127Z,97995.13
2022-09-28T12:01:02.567Z,97995.47
2022-09-28T12:03:53.101Z,97983.97
2022-09-28T12:06:29.200Z,97979.75
2022-09-28T12:09:06.844Z,97982.50
2022-09-28T12:12:02.190Z,97968.88
2022-09-28T12:14:42.859Z,97965.44
2022-09-28T12:17:22.315Z,97965.34
2022-09-28T12:19:55.948Z,97965.22
2022-09-28T12:22:33.761Z,97965.31
2022-09-28T12:25:05.239Z,97964.81
2022-09-28T12:27:43.307Z,97956.84
2022-09-28T12:30:16.630Z,97961.25
2022-09-28T12:32:51.042Z,97950.34
2022-09-28T12:35:29.283Z,97968.63
2022-09-28T12:38:17.463Z,97960.41
2022-09-28T12:40:54.735Z,97966.41
2022-09-28T12:43:46.830Z,97954.44
2022-09-28T12:46:32.012Z,97948.63
2022-09-28T12:52:29.557Z,97959.91
2022-09-28T12:55:28.533Z,97969.00
2022-09-28T12:58:05.954Z,97967.75
2022-09-28T13:00:47.965Z,97969.63
2022-09-28T13:03:41.423Z,97971.78
2022-09-28T13:06:37.448Z,97966.84
2022-09-28T13:09:20.394Z,97972.06
2022-09-28T13:12:05.913Z,97969.88
2022-09-28T13:15:04.173Z,97972.81
2022-09-28T13:17:44.748Z,97967.19
2022-09-28T13:20:26.543Z,97968.72
2022-09-28T13:23:02.802Z,97976.34
2022-09-28T13:25:36.526Z,97977.19
2022-09-28T13:28:07.859Z,97974.84
2022-09-28T13:30:40.494Z,97983.38
2022-09-28T13:33:13.796Z,97977.34
2022-09-28T13:35:44.483Z,97985.22
2022-09-28T13:38:31.972Z,97986.56
2022-09-28T13:41:16.477Z,97976.59
2022-09-28T13:44:18.140Z,97980.25
2022-09-28T13:46:59.807Z,97985.69
2022-09-28T13:49:42.614Z,97983.72
2022-09-28T13:52:21.785Z,97988.63
2022-09-28T13:55:05.025Z,97995.56
2022-09-28T13:57:47.808Z,97987.97
2022-09-28T14:00:22.344Z,97996.44
2022-09-28T14:02:59.094Z,97997.50
2022-09-28T14:05:48.748Z,97989.72
2022-09-28T14:08:33.886Z,97988.13
2022-09-28T14:11:28.278Z,97984.66
2022-09-28T14:14:01.329Z,97981.16
2022-09-28T14:16:32.654Z,97981.16
2022-09-28T14:19:09.047Z,97981.16
2022-09-28T14:21:58.724Z,97979.31
2022-09-28T14:24:36.008Z,97985.44
2022-09-28T14:27:23.799Z,97986.44
2022-09-28T14:30:07.070Z,97986.28
2022-09-28T14:32:37.733Z,97993.13
2022-09-28T14:35:18.560Z,97989.56
2022-09-28T14:38:02.429Z,97999.78
2022-09-28T14:40:49.760Z,98005.00
2022-09-28T14:43:31.120Z,97994.94
2022-09-28T14:46:21.722Z,97991.59
2022-09-28T14:48:54.019Z,98002.03
2022-09-28T14:51:44.446Z,97995.38
2022-09-28T14:54:21.560Z,97999.97
2022-09-28T14:57:08.267Z,97995.69
2022-09-28T14:59:44.065Z,97993.84
2022-09-28T15:02:20.966Z,97985.53
2022-09-28T15:04:54.037Z,97989.03
2022-09-28T15:07:25.199Z,97992.50
2022-09-28T15:09:56.876Z,98002.03
2022-09-28T15:12:28.915Z,97992.63
2022-09-28T15:15:02.741Z,97989.16
2022-09-28T15:17:39.478Z,97997.78
2022-09-28T15:20:24.761Z,97995.97
2022-09-28T15:22:57.829Z,98012.22
2022-09-28T15:25:30.435Z,97992.50
2022-09-28T15:28:02.667Z,97992.25
2022-09-28T15:30:32.598Z,97987.22
2022-09-28T15:33:17.418Z,97983.72
2022-09-28T15:35:50.547Z,97984.88
2022-09-28T15:38:20.206Z,97990.00
2022-09-28T15:40:50.430Z,97987.50
2022-09-28T15:43:27.318Z,97982.50
2022-09-28T15:46:08.018Z,97989.63
2022-09-28T15:48:46.740Z,97998.44
2022-09-28T15:51:15.576Z,97985.94
2022-09-28T15:53:48.637Z,98006.25
2022-09-28T15:56:18.889Z,98002.31
2022-09-28T15:59:11.627Z,98002.41
2022-09-28T16:01:41.584Z,98006.00
2022-09-28T16:04:36.876Z,98004.50
2022-09-28T16:07:20.718Z,98004.63
2022-09-28T16:10:04.861Z,98004.78
2022-09-28T16:12:49.147Z,98000.75
2022-09-28T16:15:22.158Z,98005.34
2022-09-28T16:17:53.939Z,98009.66
2022-09-28T16:20:29.599Z,98014.94
2022-09-28T16:23:06.088Z,98008.34
2022-09-28T16:25:39.196Z,98016.31
2022-09-28T16:28:31.362Z,98023.28
2022-09-28T16:31:05.947Z,98028.44
2022-09-28T16:33:42.789Z,97992.03
2022-09-28T16:36:15.009Z,98025.22
2022-09-28T16:38:46.027Z,98020.19
2022-09-28T16:41:17.738Z,98025.34
2022-09-28T16:43:48.336Z,98022.63
2022-09-28T16:46:20.043Z,98020.91
2022-09-28T16:48:51.474Z,98017.41
2022-09-28T16:51:21.877Z,98020.06
2022-09-28T16:54:01.351Z,98028.66
2022-09-28T16:56:30.519Z,98026.25
2022-09-28T16:59:01.550Z,98022.84
2022-09-28T17:01:31.543Z,98019.44
2022-09-28T17:04:00.348Z,98027.16
2022-09-28T17:06:29.433Z,98018.56
2022-09-28T17:08:59.349Z,98022.00
2022-09-28T17:11:27.977Z,98022.00
2022-09-28T17:13:59.179Z,98023.06
2022-09-28T17:17:02.342Z,98025.03
2022-09-28T17:19:24.553Z,98018.47
2022-09-28T17:21:53.710Z,98016.91
2022-09-28T17:24:22.491Z,98027.25
2022-09-28T17:26:52.721Z,98001.91
2022-09-28T17:29:21.992Z,98025.59
2022-09-28T17:31:52.308Z,98020.81
2022-09-28T17:34:21.451Z,98023.75
2022-09-28T17:36:50.203Z,98017.72
2022-09-28T17:39:20.388Z,98020.16
2022-09-28T17:41:49.202Z,98021.69
2022-09-28T17:44:18.205Z,98019.75
2022-09-28T17:46:49.990Z,98012.81
2022-09-28T17:49:20.059Z,98017.94
2022-09-28T17:51:50.532Z,98008.53
2022-09-28T17:54:21.020Z,98007.69
2022-09-28T17:56:50.218Z,97997.69
2022-09-28T17:59:22.310Z,98009.34
2022-09-28T18:01:53.937Z,98015.38
2022-09-28T18:04:50.049Z,98010.31
2022-09-28T18:07:13.347Z,98007.81
2022-09-28T18:09:46.147Z,98010.44
2022-09-28T18:12:15.520Z,98009.78
2022-09-28T18:14:44.361Z,98013.34
2022-09-28T18:17:13.423Z,98017.63
2022-09-28T18:19:43.620Z,98017.63
2022-09-28T18:22:13.047Z,98019.25
2022-09-28T18:24:41.788Z,98023.50
2022-09-28T18:27:10.647Z,98012.19
2022-09-28T18:29:39.501Z,98007.81
2022-09-28T18:32:08.217Z,98006.03
2022-09-28T18:34:40.509Z,98010.31
2022-09-28T18:37:11.909Z,98014.63
2022-09-28T18:39:42.279Z,98014.63
2022-09-28T18:42:11.869Z,98020.53
2022-09-28T18:44:42.209Z,98018.78
2022-09-28T18:47:15.724Z,98021.56
2022-09-28T18:49:46.711Z,97999.75
2022-09-28T18:52:17.268Z,98017.25
2022-09-28T18:54:50.567Z,98027.47
2022-09-28T18:57:21.483Z,98026.69
2022-09-28T18:59:50.576Z,98026.81
2022-09-28T19:02:21.069Z,98027.91
2022-09-28T19:04:50.013Z,98032.34
2022-09-28T19:07:24.313Z,98024.91
2022-09-28T19:09:53.524Z,98007.47
2022-09-28T19:12:22.411Z,98031.97
2022-09-28T19:14:53.147Z,98023.75
2022-09-28T19:17:22.013Z,98023.78
2022-09-28T19:19:52.151Z,98022.84
2022-09-28T19:22:22.320Z,98020.03
2022-09-28T19:24:51.131Z,98020.88
2022-09-28T19:27:20.054Z,98019.91
2022-09-28T19:29:49.080Z,98019.91
2022-09-28T19:32:18.041Z,98024.13
2022-09-28T19:34:47.461Z,98026.50
2022-09-28T19:37:16.621Z,98018.88
2022-09-28T19:39:47.202Z,98030.84
2022-09-28T19:42:16.414Z,98017.47
2022-09-28T19:44:45.731Z,98023.13
2022-09-28T19:47:14.581Z,98024.91
2022-09-28T19:49:43.734Z,98029.41
2022-09-28T19:52:17.277Z,98020.94
2022-09-28T19:54:57.088Z,98008.34
2022-09-28T19:57:28.966Z,98017.59
2022-09-28T20:00:02.410Z,98010.06
2022-09-28T20:02:35.240Z,98012.84
2022-09-28T20:05:04.634Z,98015.63
2022-09-28T20:07:35.228Z,98016.63
2022-09-28T20:10:06.393Z,98021.94
2022-09-28T20:12:35.450Z,98022.06
2022-09-28T20:15:05.511Z,98024.50
2022-09-28T20:17:34.321Z,98027.69
2022-09-28T20:20:03.218Z,98025.03
2022-09-28T20:22:32.344Z,98017.41
2022-09-28T20:25:03.080Z,98015.03
2022-09-28T20:27:33.113Z,98016.47
2022-09-28T20:30:01.781Z,98012.31
2022-09-28T20:32:32.943Z,98028.34
2022-09-28T20:35:01.642Z,98010.84
2022-09-28T20:37:31.369Z,98020.16
2022-09-28T20:40:01.459Z,98008.34
2022-09-28T20:42:32.245Z,98026.81
2022-09-28T20:45:02.344Z,98023.34
2022-09-28T20:47:31.221Z,98029.25
2022-09-28T20:49:59.915Z,98024.06
2022-09-28T20:52:28.540Z,98025.91
2022-09-28T20:54:57.172Z,98033.75
2022-09-28T20:57:25.852Z,98037.19
2022-09-28T20:59:54.931Z,98036.25
2022-09-28T21:02:25.363Z,98035.41
2022-09-28T21:04:54.316Z,98028.84
2022-09-28T21:07:22.930Z,98034.91
2022-09-28T21:09:52.214Z,98036.75
2022-09-28T21:12:20.931Z,98025.16
2022-09-28T21:14:49.661Z,98035.91
2022-09-28T21:17:18.293Z,98036.75
2022-09-28T21:19:48.753Z,98037.59
2022-09-28T21:22:17.343Z,98030.78
2022-09-28T21:24:46.033Z,98034.25
2022-09-28T21:27:14.692Z,98041.19
2022-09-28T21:29:43.702Z,98037.97
2022-09-28T21:32:12.401Z,98042.94
2022-09-28T21:34:41.102Z,98042.19
2022-09-28T21:37:11.044Z,98038.78
2022-09-28T21:39:39.666Z,98049.13
2022-09-28T21:42:08.484Z,98054.31
2022-09-28T21:44:37.206Z,98064.56
2022-09-28T21:47:05.924Z,98056.88
2022-09-28T21:49:35.295Z,98043.44
2022-09-28T21:52:03.974Z,98051.75
2022-09-28T21:54:37.534Z,98063.72
2022-09-28T21:57:06.268Z,98067.19
2022-09-28T21:59:34.843Z,98063.72
2022-09-28T22:02:05.215Z,98065.53
2022-09-28T22:04:33.986Z,98061.28
2022-09-28T22:07:02.548Z,98068.97
2022-09-28T22:09:31.313Z,98053.00
2022-09-28T22:12:01.364Z,98063.72
2022-09-28T22:14:30.026Z,98063.84
2022-09-28T22:16:58.669Z,98064.75
2022-09-28T22:19:27.455Z,98063.84
2022-09-28T22:21:56.062Z,98053.69
2022-09-28T22:24:24.884Z,98059.81
2022-09-28T22:26:53.522Z,98049.91
2022-09-28T22:29:24.365Z,98063.44
2022-09-28T22:31:53.064Z,98067.81
2022-09-28T22:34:21.692Z,98070.22
2022-09-28T22:36:50.745Z,98072.69
2022-09-28T22:39:19.434Z,98076.09
2022-09-28T22:41:48.202Z,98072.69
2022-09-28T22:44:16.855Z,98067.56
2022-09-28T22:46:47.596Z,98075.13
2022-09-28T22:49:17.067Z,98067.44
2022-09-28T22:51:45.702Z,98073.34
2022-09-28T22:54:16.633Z,98066.53
2022-09-28T22:56:45.615Z,98069.09
2022-09-28T22:59:14.179Z,98066.53
2022-09-28T23:01:43.111Z,98060.50
2022-09-28T23:04:13.415Z,98062.19
2022-09-28T23:06:42.065Z,98071.63
2022-09-28T23:09:10.875Z,98069.94
2022-09-28T23:11:39.505Z,98075.13
2022-09-28T23:14:08.482Z,98074.38
2022-09-28T23:16:37.173Z,98071.78
2022-09-28T23:19:06.016Z,98081.28
2022-09-28T23:21:37.633Z,98077.78
2022-09-28T23:24:06.393Z,98081.97
2022-09-28T23:26:37.307Z,98077.69
2022-09-28T23:29:06.323Z,98079.34
2022-09-28T23:31:35.977Z,98076.94
2022-09-28T23:34:05.542Z,98091.41
2022-09-28T23:36:36.307Z,98094.88
2022-09-28T23:39:05.237Z,98094.03
2022-09-28T23:41:33.933Z,98092.50
2022-09-28T23:44:02.905Z,98092.44
2022-09-28T23:46:32.013Z,98096.66
2022-09-28T23:49:00.753Z,98107.75
2022-09-28T23:51:29.834Z,98115.41
2022-09-28T23:53:59.771Z,98117.03
2022-09-28T23:56:28.447Z,98124.72
2022-09-28T23:58:57.009Z,98116.22
